Time;durP1;ratioP1;P1;durP2;ratioP2;P2;SDS_P1;SDS_P2;PMS_P1;PMS_P2;Temp;Humidity;BMP_temperature;BMP_pressure;BME280_temperature;BME280_humidity;BME280_pressure;Samples;Min_cycle;Max_cycle;Signal;HPM_P1;HPM_P2
2023/04/24 05:16:04;;;;;;;18.83;15.43;;;13.60;1.00;;;;;;5534615;23;20287;-86
2023/04/24 05:18:31;;;;;;;17.73;15.23;;;13.70;99.90;;;;;;5016361;28;20197;-86
2023/04/24 05:20:58;;;;;;;17.67;15.03;;;13.80;99.90;;;;;;5014033;28;20274;-85
2023/04/24 05:23:25;;;;;;;16.97;14.00;;;13.80;99.90;;;;;;5017588;28;20206;-86
2023/04/24 05:25:52;;;;;;;17.57;14.00;;;13.80;99.90;;;;;;5018474;28;20197;-86
2023/04/24 05:28:19;;;;;;;18.83;15.13;;;13.70;99.90;;;;;;5015490;28;20571;-86
2023/04/24 05:30:46;;;;;;;20.20;14.90;;;13.70;99.90;;;;;;5015602;28;20243;-86
2023/04/24 05:33:14;;;;;;;19.60;15.33;;;13.60;99.90;;;;;;5028917;28;20195;-85
2023/04/24 05:35:45;;;;;;;17.87;14.67;;;13.50;99.90;;;;;;5027003;28;20227;-86
2023/04/24 05:38:12;;;;;;;19.90;15.43;;;13.50;99.90;;;;;;5026802;28;20620;-86
2023/04/24 05:40:39;;;;;;;21.03;16.37;;;13.50;99.90;;;;;;5029468;28;20192;-86
2023/04/24 05:43:06;;;;;;;18.90;15.27;;;13.50;99.90;;;;;;5015705;28;20205;-87
2023/04/24 05:45:35;;;;;;;18.30;15.17;;;13.50;99.90;;;;;;5029181;28;20250;-86
2023/04/24 05:48:02;;;;;;;18.20;14.93;;;13.60;99.90;;;;;;5012974;28;20728;-86
2023/04/24 05:50:31;;;;;;;19.77;15.20;;;13.80;1.00;;;;;;5012778;28;20217;-87
2023/04/24 05:52:58;;;;;;;22.40;15.20;;;14.20;1.00;;;;;;5015865;28;20242;-87
2023/04/24 05:55:25;;;;;;;17.97;14.90;;;14.60;99.90;;;;;;5026049;28;20274;-86
2023/04/24 05:57:52;;;;;;;18.33;15.47;;;14.80;99.90;;;;;;5019461;28;20290;-87
2023/04/24 06:00:20;;;;;;;18.90;14.45;;;15.00;99.90;;;;;;5029339;28;20647;-87
2023/04/24 06:02:47;;;;;;;16.50;14.68;;;15.20;13.10;;;;;;5024158;28;20199;-87
2023/04/24 06:05:14;;;;;;;17.33;13.52;;;15.40;1.00;;;;;;5022097;28;20201;-87
2023/04/24 06:07:42;;;;;;;40.00;15.52;;;15.50;1.00;;;;;;5024437;28;20197;-87
2023/04/24 06:10:10;;;;;;;21.00;13.30;;;15.60;1.00;;;;;;5029746;28;20245;-88
2023/04/24 06:12:37;;;;;;;20.02;13.27;;;15.50;1.00;;;;;;5027534;28;20192;-87
2023/04/24 06:15:05;;;;;;;15.88;13.13;;;15.70;1.00;;;;;;5012636;28;20192;-87
2023/04/24 06:17:33;;;;;;;16.65;13.50;;;15.90;1.00;;;;;;5012046;28;20205;-87
2023/04/24 06:19:59;;;;;;;15.10;13.13;;;16.20;99.90;;;;;;5012404;28;20285;-87
2023/04/24 06:22:26;;;;;;;16.13;12.90;;;16.30;99.90;;;;;;5012791;28;20190;-88
2023/04/24 06:24:55;;;;;;;15.98;12.25;;;16.50;52.80;;;;;;5013968;28;20208;-88
2023/04/24 06:27:22;;;;;;;15.57;12.48;;;16.60;1.00;;;;;;5027201;28;20193;-88
2023/04/24 06:29:54;;;;;;;16.95;12.52;;;16.70;1.00;;;;;;5018358;28;20198;-88
2023/04/24 06:32:21;;;;;;;14.73;12.48;;;16.70;1.00;;;;;;5017943;28;20586;-88
2023/04/24 06:34:48;;;;;;;16.02;12.82;;;16.80;1.00;;;;;;5018055;28;20271;-88
2023/04/24 06:37:16;;;;;;;16.35;12.23;;;16.90;1.00;;;;;;5015364;28;20248;-88
2023/04/24 06:39:43;;;;;;;13.68;12.27;;;16.80;1.00;;;;;;5015639;28;20687;-88
2023/04/24 06:42:11;;;;;;;18.50;12.43;;;16.60;1.00;;;;;;5017098;28;20191;-88
2023/04/24 06:44:40;;;;;;;17.80;12.88;;;16.50;1.00;;;;;;5017206;28;20276;-88
2023/04/24 06:47:08;;;;;;;20.90;17.73;;;16.30;1.00;;;;;;5019428;28;20213;-88
2023/04/24 06:49:35;;;;;;;90.43;65.78;;;16.30;1.00;;;;;;5028932;28;20207;-87
2023/04/24 06:52:02;;;;;;;57.88;47.58;;;16.20;1.00;;;;;;5015888;28;20217;-87
2023/04/24 06:54:29;;;;;;;17.13;15.32;;;16.20;1.00;;;;;;5016354;28;20194;-87
2023/04/24 06:56:57;;;;;;;19.42;13.85;;;16.10;1.00;;;;;;5015967;28;20202;-89
2023/04/24 06:59:25;;;;;;;15.02;13.13;;;16.10;1.00;;;;;;5016148;28;20200;-88
2023/04/24 07:01:52;;;;;;;15.95;12.40;;;16.00;1.00;;;;;;5015763;28;20190;-86
2023/04/24 07:04:19;;;;;;;16.80;12.68;;;16.00;1.00;;;;;;5016052;28;20741;-88
2023/04/24 07:06:47;;;;;;;15.50;12.27;;;16.10;1.00;;;;;;5015852;28;20268;-88
2023/04/24 07:09:15;;;;;;;16.58;12.40;;;16.10;1.00;;;;;;5016262;28;20547;-87
2023/04/24 07:11:42;;;;;;;19.88;13.70;;;16.20;1.00;;;;;;5021299;28;20214;-88
2023/04/24 07:14:09;;;;;;;16.77;12.80;;;16.40;1.00;;;;;;5022699;28;20201;-88
2023/04/24 07:16:38;;;;;;;15.43;13.15;;;16.70;1.00;;;;;;5028046;28;20586;-88
2023/04/24 07:19:05;;;;;;;15.50;11.90;;;17.00;99.90;;;;;;5033712;28;20755;-88
2023/04/24 07:21:32;;;;;;;18.08;13.68;;;17.20;99.90;;;;;;5031760;28;20252;-88
2023/04/24 07:23:59;;;;;;;17.58;13.13;;;17.60;84.40;;;;;;5029204;28;20607;-88
2023/04/24 07:26:26;;;;;;;16.02;12.43;;;18.10;1.00;;;;;;5029228;28;20197;-88
2023/04/24 07:28:53;;;;;;;16.10;14.38;;;18.30;99.90;;;;;;5031309;28;20194;-88
2023/04/24 07:31:20;;;;;;;14.57;12.52;;;18.50;99.90;;;;;;5017764;28;20221;-88
2023/04/24 07:33:50;;;;;;;14.60;12.23;;;18.50;99.90;;;;;;5033413;28;20579;-88
2023/04/24 07:36:18;;;;;;;17.00;12.48;;;18.60;96.80;;;;;;5023159;28;20195;-88
2023/04/24 07:38:45;;;;;;;19.55;12.63;;;18.70;44.20;;;;;;5020018;28;20677;-88
2023/04/24 07:41:12;;;;;;;13.57;11.95;;;18.80;1.00;;;;;;5014382;28;20201;-88
2023/04/24 07:43:39;;;;;;;12.32;11.10;;;18.90;1.00;;;;;;5015155;28;20194;-88
2023/04/24 07:46:07;;;;;;;17.58;11.43;;;18.90;1.00;;;;;;5015437;28;20198;-88
2023/04/24 07:48:34;;;;;;;19.77;11.13;;;18.80;1.00;;;;;;5022681;28;20257;-87
2023/04/24 07:51:02;;;;;;;11.82;10.60;;;18.80;1.00;;;;;;5029743;28;20221;-88
2023/04/24 07:53:29;;;;;;;18.13;13.93;;;18.80;99.90;;;;;;5025736;28;20670;-88
2023/04/24 07:55:57;;;;;;;17.42;11.13;;;18.70;99.90;;;;;;5020121;28;20290;-88
2023/04/24 07:58:24;;;;;;;52.08;13.25;;;18.60;1.00;;;;;;5014369;28;20202;-89
2023/04/24 08:00:51;;;;;;;16.02;10.60;;;18.60;1.00;;;;;;5025653;28;20263;-89
2023/04/24 08:03:19;;;;;;;16.40;10.20;;;18.50;1.00;;;;;;5033161;28;20201;-88
2023/04/24 08:05:47;;;;;;;11.80;8.88;;;18.50;1.00;;;;;;5029811;28;20213;-88
2023/04/24 08:08:15;;;;;;;7.43;6.72;;;18.50;1.00;;;;;;5026269;28;20566;-88
2023/04/24 08:10:42;;;;;;;9.45;7.63;;;18.40;1.00;;;;;;5026657;28;20200;-89
2023/04/24 08:13:11;;;;;;;8.65;7.45;;;18.30;1.00;;;;;;5021774;28;20210;-88
2023/04/24 08:15:38;;;;;;;8.90;7.82;;;18.20;1.00;;;;;;5026325;28;20245;-87
2023/04/24 08:18:05;;;;;;;14.27;8.48;;;18.10;1.00;;;;;;5026453;28;20194;-88
2023/04/24 08:20:32;;;;;;;10.32;7.47;;;18.00;1.00;;;;;;5025545;28;20201;-87
2023/04/24 08:22:59;;;;;;;10.55;6.85;;;18.00;1.00;;;;;;5026950;28;20194;-88
2023/04/24 08:25:27;;;;;;;9.05;7.68;;;17.90;1.00;;;;;;5020060;28;20213;-88
2023/04/24 08:27:54;;;;;;;12.15;9.02;;;17.80;1.00;;;;;;5014800;28;20714;-88
2023/04/24 08:30:22;;;;;;;15.07;9.50;;;17.80;1.00;;;;;;5020740;28;20733;-88
2023/04/24 08:32:49;;;;;;;11.77;6.70;;;17.90;1.00;;;;;;5020894;28;20304;-88
2023/04/24 08:35:16;;;;;;;8.65;6.68;;;17.90;1.00;;;;;;5022564;28;20253;-88
2023/04/24 08:37:43;;;;;;;9.45;6.28;;;17.90;1.00;;;;;;5013278;28;20751;-88
2023/04/24 08:40:14;;;;;;;10.77;6.97;;;17.90;1.00;;;;;;5026752;28;20209;-88
2023/04/24 08:42:44;;;;;;;9.57;7.10;;;18.00;1.00;;;;;;5029810;28;20276;-89
2023/04/24 08:45:13;;;;;;;9.07;6.50;;;18.20;1.00;;;;;;5028821;28;20243;-87
2023/04/24 08:47:41;;;;;;;7.90;6.40;;;18.20;99.90;;;;;;5030277;28;20732;-88
2023/04/24 08:50:09;;;;;;;10.88;6.65;;;18.20;99.90;;;;;;5021476;28;20201;-89
2023/04/24 08:52:37;;;;;;;10.18;6.22;;;18.20;99.90;;;;;;5016857;28;20218;-87
2023/04/24 08:55:04;;;;;;;9.52;6.53;;;18.10;99.90;;;;;;5023411;28;20212;-88
2023/04/24 08:57:33;;;;;;;8.20;5.95;;;18.10;99.90;;;;;;5018323;28;20198;-88
2023/04/24 09:00:03;;;;;;;5.63;4.95;;;18.20;99.90;;;;;;5024162;28;20201;-88
2023/04/24 09:02:31;;;;;;;6.10;4.22;;;18.50;99.90;;;;;;5018831;28;20201;-88
2023/04/24 09:04:58;;;;;;;6.00;4.53;;;18.70;99.90;;;;;;5014687;28;20199;-88
2023/04/24 09:07:28;;;;;;;9.70;4.22;;;19.00;99.90;;;;;;5026978;28;20202;-88
2023/04/24 09:09:55;;;;;;;6.55;4.30;;;19.20;99.90;;;;;;5027056;28;20277;-88
2023/04/24 09:12:23;;;;;;;5.63;4.13;;;19.30;57.10;;;;;;5023289;28;20221;-89
2023/04/24 09:14:51;;;;;;;6.70;5.15;;;19.30;1.00;;;;;;5026080;28;20257;-88
2023/04/24 09:17:19;;;;;;;8.38;6.70;;;19.10;1.00;;;;;;5027242;28;20578;-88
2023/04/24 09:19:46;;;;;;;10.60;8.10;;;18.90;1.00;;;;;;5027016;28;20255;-89
2023/04/24 09:22:13;;;;;;;13.93;8.82;;;18.70;1.00;;;;;;5024511;28;20202;-88
2023/04/24 09:24:40;;;;;;;7.78;6.28;;;18.50;1.00;;;;;;5026191;28;20243;-88
2023/04/24 09:27:08;;;;;;;8.68;5.93;;;18.20;1.00;;;;;;5027441;28;20658;-88
2023/04/24 09:29:35;;;;;;;25.38;5.88;;;17.90;1.00;;;;;;5025446;28;20206;-88
2023/04/24 09:32:22;;;;;;;4.93;4.40;;;17.80;99.90;;;;;;5029778;28;20221;-86
2023/04/24 09:34:50;;;;;;;8.27;5.57;;;17.80;99.90;;;;;;5018230;28;20234;-86
2023/04/24 09:37:29;;;;;;;5.82;5.03;;;18.00;99.90;;;;;;5027119;28;20609;-88
2023/04/24 09:40:09;;;;;;;12.32;4.80;;;18.20;99.90;;;;;;5022896;28;20214;-88
2023/04/24 09:42:36;;;;;;;5.80;4.78;;;18.30;99.90;;;;;;5025418;28;20196;-87
2023/04/24 09:45:04;;;;;;;9.30;6.05;;;18.40;78.20;;;;;;5012755;28;20202;-88
2023/04/24 09:47:38;;;;;;;13.60;8.35;;;18.60;41.70;;;;;;5019198;28;20613;-87
2023/04/24 09:50:14;;;;;;;8.68;5.95;;;18.70;21.20;;;;;;5017730;28;20200;-87
2023/04/24 09:52:43;;;;;;;15.65;7.40;;;18.80;1.00;;;;;;5025457;28;20264;-88
2023/04/24 09:55:21;;;;;;;8.70;7.15;;;18.80;1.00;;;;;;5030792;28;20210;-88
2023/04/24 09:57:55;;;;;;;9.45;7.18;;;18.60;1.00;;;;;;5029239;28;20623;-87
2023/04/24 10:00:26;;;;;;;9.48;6.57;;;18.60;1.00;;;;;;5013261;28;20198;-87
2023/04/24 10:03:02;;;;;;;9.40;6.97;;;18.60;1.00;;;;;;5012692;28;20197;-88
2023/04/24 10:05:31;;;;;;;7.85;7.05;;;18.50;14.50;;;;;;5012841;28;20575;-88
2023/04/24 10:07:59;;;;;;;10.45;7.18;;;18.60;40.50;;;;;;5012942;28;20241;-88
2023/04/24 10:10:26;;;;;;;10.77;7.45;;;18.70;42.70;;;;;;5013124;28;20222;-89
2023/04/24 10:12:54;;;;;;;8.48;7.57;;;18.80;52.60;;;;;;5013092;28;20284;-89
2023/04/24 10:15:21;;;;;;;7.00;5.88;;;18.90;13.80;;;;;;5013006;28;20222;-89
2023/04/24 10:17:52;;;;;;;18.15;6.53;;;19.00;1.00;;;;;;5028462;28;20683;-88
2023/04/24 10:20:22;;;;;;;6.78;5.55;;;19.10;1.00;;;;;;5019969;28;20204;-88
2023/04/24 10:22:51;;;;;;;10.45;7.50;;;19.10;1.00;;;;;;5018678;28;20198;-88
2023/04/24 10:25:20;;;;;;;12.40;8.27;;;19.10;1.00;;;;;;5015497;28;20659;-88
2023/04/24 10:27:48;;;;;;;6.25;4.90;;;19.00;1.00;;;;;;5032611;28;20283;-89
2023/04/24 10:30:16;;;;;;;6.93;5.38;;;19.00;1.00;;;;;;5021165;28;20201;-88
2023/04/24 10:32:43;;;;;;;6.13;4.97;;;18.90;1.00;;;;;;5018406;28;20210;-89
2023/04/24 10:35:12;;;;;;;6.22;4.40;;;19.00;1.00;;;;;;5016672;28;20555;-89
2023/04/24 10:37:44;;;;;;;6.53;4.72;;;19.20;1.00;;;;;;5024919;28;20197;-89
2023/04/24 10:40:12;;;;;;;6.78;4.18;;;19.30;1.00;;;;;;5016910;28;20244;-89
2023/04/24 10:42:42;;;;;;;5.43;3.95;;;19.50;1.00;;;;;;5016961;28;20615;-89
2023/04/24 10:45:17;;;;;;;24.33;6.43;;;19.60;1.00;;;;;;5037087;28;20197;-89
2023/04/24 10:47:52;;;;;;;6.38;3.97;;;19.70;1.00;;;;;;5026971;28;20233;-88
2023/04/24 10:50:19;;;;;;;5.25;4.15;;;19.80;1.00;;;;;;5023125;28;20201;-89
2023/04/24 10:52:51;;;;;;;12.50;5.35;;;20.20;1.00;;;;;;5028284;28;20218;-88
2023/04/24 10:55:39;;;;;;;5.97;3.85;;;20.40;1.00;;;;;;5032240;28;20202;-89
2023/04/24 10:58:06;;;;;;;5.35;3.75;;;20.70;1.00;;;;;;5016187;28;20260;-89
2023/04/24 11:00:37;;;;;;;11.93;4.63;;;20.80;1.00;;;;;;5016714;28;20202;-89
2023/04/24 11:03:06;;;;;;;5.88;4.10;;;20.70;1.00;;;;;;5016369;28;20563;-88
2023/04/24 11:05:52;;;;;;;3.92;3.53;;;20.80;1.00;;;;;;5016607;28;20580;-89
2023/04/24 11:08:26;;;;;;;7.75;4.28;;;20.80;1.00;;;;;;5016622;28;20238;-89
2023/04/24 11:11:01;;;;;;;5.45;3.88;;;20.90;1.00;;;;;;5016443;28;20260;-89
2023/04/24 11:13:49;;;;;;;6.78;4.00;;;21.00;1.00;;;;;;5016399;28;20260;-88
2023/04/24 11:16:21;;;;;;;3.78;3.47;;;21.20;1.00;;;;;;5016010;28;20317;-89
2023/04/24 11:18:54;;;;;;;4.22;3.50;;;21.50;1.00;;;;;;5015450;28;20391;-89
2023/04/24 11:21:23;;;;;;;5.13;3.90;;;21.40;1.00;;;;;;5016357;28;20283;-89
2023/04/24 11:23:51;;;;;;;6.75;4.40;;;21.70;99.90;;;;;;5016158;28;20248;-89
2023/04/24 11:26:20;;;;;;;7.82;5.55;;;21.70;99.90;;;;;;5016205;28;20289;-89
2023/04/24 11:28:51;;;;;;;5.65;3.53;;;21.60;99.90;;;;;;5025822;28;20256;-89
2023/04/24 11:31:38;;;;;;;11.15;7.50;;;21.60;99.90;;;;;;5032609;28;20674;-89
2023/04/24 11:34:10;;;;;;;8.60;6.13;;;21.50;99.90;;;;;;5018783;28;20241;-89
2023/04/24 11:36:37;;;;;;;25.55;19.67;;;21.40;99.90;;;;;;5016031;28;20570;-89
2023/04/24 11:39:06;;;;;;;115.88;74.88;;;21.50;99.90;;;;;;5035807;28;20742;-89
2023/04/24 11:41:34;;;;;;;14.18;11.75;;;21.60;99.90;;;;;;5029156;28;20202;-90
2023/04/24 11:44:01;;;;;;;8.60;7.32;;;21.50;99.90;;;;;;5019748;28;20248;-90
2023/04/24 11:46:29;;;;;;;5.60;3.70;;;21.30;99.90;;;;;;5021438;28;20193;-89
2023/04/24 11:48:57;;;;;;;5.80;3.00;;;21.30;99.90;;;;;;5033424;28;20197;-89
2023/04/24 11:51:25;;;;;;;2.83;2.60;;;21.20;99.90;;;;;;5015742;28;20233;-90
2023/04/24 11:53:52;;;;;;;4.90;2.88;;;21.20;99.90;;;;;;5023071;28;20589;-89
2023/04/24 11:56:20;;;;;;;4.65;3.20;;;21.30;99.90;;;;;;5023787;28;20257;-89
2023/04/24 11:58:49;;;;;;;3.05;2.60;;;21.30;99.90;;;;;;5015823;28;20206;-89
2023/04/24 12:01:16;;;;;;;3.28;2.58;;;21.30;99.90;;;;;;5018761;28;20206;-90
2023/04/24 12:03:47;;;;;;;3.80;3.40;;;21.30;99.90;;;;;;5016173;28;20196;-89
2023/04/24 12:06:14;;;;;;;9.32;7.82;;;21.30;99.90;;;;;;5020176;28;20194;-90
2023/04/24 12:08:41;;;;;;;4.80;4.07;;;21.30;99.90;;;;;;5027729;28;20202;-89
2023/04/24 12:11:09;;;;;;;10.50;7.10;;;21.30;99.90;;;;;;5024339;28;20194;-89
2023/04/24 12:13:37;;;;;;;7.35;3.67;;;21.40;99.90;;;;;;5020440;28;20288;-89
2023/04/24 12:16:05;;;;;;;7.93;2.90;;;21.40;99.90;;;;;;5015648;28;20770;-89
2023/04/24 12:18:33;;;;;;;7.38;4.43;;;21.50;99.90;;;;;;5025201;28;20246;-89
2023/04/24 12:21:20;;;;;;;27.48;11.73;;;21.50;99.90;;;;;;5028345;28;20198;-89
2023/04/24 12:23:47;;;;;;;16.58;9.32;;;21.60;99.90;;;;;;5037231;28;20228;-89
2023/04/24 12:26:18;;;;;;;12.98;8.60;;;21.50;99.90;;;;;;5033731;28;20201;-89
2023/04/24 12:28:48;;;;;;;9.73;3.72;;;21.50;99.90;;;;;;5032382;28;20281;-89
2023/04/24 12:31:15;;;;;;;6.32;3.00;;;21.50;99.90;;;;;;5033420;28;20244;-89
2023/04/24 12:33:43;;;;;;;7.35;2.40;;;21.40;99.90;;;;;;5021466;28;20219;-89
2023/04/24 12:36:12;;;;;;;3.28;2.35;;;21.30;99.90;;;;;;5014939;28;20210;-89
2023/04/24 12:38:41;;;;;;;6.18;2.80;;;21.20;99.90;;;;;;5022794;28;20194;-88
2023/04/24 12:41:09;;;;;;;7.13;2.70;;;21.00;99.90;;;;;;5025757;28;20276;-89
2023/04/24 12:43:37;;;;;;;2.95;2.33;;;20.90;99.90;;;;;;5030787;28;20227;-89
2023/04/24 12:46:05;;;;;;;2.97;2.13;;;20.80;99.90;;;;;;5017105;28;20214;-89
2023/04/24 12:48:33;;;;;;;7.30;4.18;;;20.70;99.90;;;;;;5018455;28;20248;-88
2023/04/24 12:51:01;;;;;;;5.88;3.42;;;20.60;99.90;;;;;;5020424;28;20282;-88
2023/04/24 12:53:30;;;;;;;9.00;3.40;;;20.60;99.90;;;;;;5022807;28;20300;-88
2023/04/24 12:55:58;;;;;;;4.25;2.38;;;20.60;99.90;;;;;;5029321;28;20280;-88
2023/04/24 12:58:25;;;;;;;4.03;2.78;;;20.60;99.90;;;;;;5016363;28;20198;-88
2023/04/24 13:00:52;;;;;;;6.03;2.40;;;20.60;99.90;;;;;;5030457;28;20237;-88
2023/04/24 13:03:22;;;;;;;3.00;2.00;;;20.70;99.90;;;;;;5031757;28;20200;-88
2023/04/24 13:05:49;;;;;;;3.05;1.30;;;20.90;99.90;;;;;;5022748;28;20200;-89
2023/04/24 13:08:16;;;;;;;16.88;9.10;;;21.10;99.90;;;;;;5020531;28;20194;-88
2023/04/24 13:10:43;;;;;;;4.70;3.28;;;21.40;99.90;;;;;;5028690;28;20663;-88
2023/04/24 13:13:10;;;;;;;12.05;6.90;;;21.70;99.90;;;;;;5013342;28;20210;-88
2023/04/24 13:15:37;;;;;;;4.63;1.80;;;22.10;99.90;;;;;;5013861;28;20700;-87
2023/04/24 13:18:04;;;;;;;2.38;1.52;;;22.30;99.90;;;;;;5013609;28;20249;-91
2023/04/24 13:20:35;;;;;;;2.65;1.00;;;22.50;99.90;;;;;;5013693;28;20194;-88
2023/04/24 13:23:02;;;;;;;4.13;1.40;;;22.60;99.90;;;;;;5013355;28;20201;-89
2023/04/24 13:25:29;;;;;;;4.68;1.00;;;22.50;99.90;;;;;;5013551;28;20664;-88
2023/04/24 13:27:56;;;;;;;3.65;1.10;;;22.30;99.90;;;;;;5015243;28;20196;-89
2023/04/24 13:30:23;;;;;;;1.88;1.00;;;22.20;99.90;;;;;;5013947;28;20194;-89
2023/04/24 13:32:50;;;;;;;2.90;1.08;;;22.10;99.90;;;;;;5013622;28;20268;-89
2023/04/24 13:35:17;;;;;;;1.70;0.93;;;22.10;99.90;;;;;;5013618;28;20580;-89
2023/04/24 13:37:45;;;;;;;1.50;0.95;;;22.10;99.90;;;;;;5013533;28;20194;-90
2023/04/24 13:40:12;;;;;;;3.67;1.35;;;22.10;99.90;;;;;;5013662;28;20217;-88
2023/04/24 13:42:39;;;;;;;1.95;1.20;;;22.10;99.90;;;;;;5012632;28;20244;-89
2023/04/24 13:45:07;;;;;;;3.42;1.10;;;22.30;99.90;;;;;;5013051;28;20608;-88
2023/04/24 13:47:35;;;;;;;2.58;1.15;;;22.50;99.90;;;;;;5025629;28;20262;-88
2023/04/24 13:50:02;;;;;;;6.15;1.92;;;22.70;99.90;;;;;;5026624;28;20273;-89
2023/04/24 13:52:29;;;;;;;4.45;2.55;;;22.90;99.90;;;;;;5016500;28;20248;-89
2023/04/24 13:54:57;;;;;;;2.30;1.10;;;23.10;99.90;;;;;;5031193;28;20636;-89
2023/04/24 13:57:24;;;;;;;3.60;1.48;;;23.10;99.90;;;;;;5013601;28;20198;-89
2023/04/24 13:59:51;;;;;;;5.85;1.60;;;22.90;99.90;;;;;;5013063;28;20297;-88
2023/04/24 14:02:18;;;;;;;1.83;1.10;;;22.70;99.90;;;;;;5019558;28;20252;-89
2023/04/24 14:04:46;;;;;;;1.58;1.00;;;22.60;99.90;;;;;;5018362;28;20190;-90
2023/04/24 14:07:13;;;;;;;1.35;1.13;;;22.50;99.90;;;;;;5030893;28;20201;-89
2023/04/24 14:09:40;;;;;;;2.25;1.02;;;22.30;99.90;;;;;;5028835;28;20197;-89
2023/04/24 14:12:09;;;;;;;2.35;0.80;;;22.20;99.90;;;;;;5012617;28;20252;-89
2023/04/24 14:14:36;;;;;;;2.33;0.95;;;22.10;99.90;;;;;;5012646;28;20695;-88
2023/04/24 14:17:03;;;;;;;1.33;0.70;;;22.00;99.90;;;;;;5013014;28;20268;-88
2023/04/24 14:19:30;;;;;;;2.35;0.75;;;21.90;99.90;;;;;;5012706;28;20226;-89
2023/04/24 14:21:58;;;;;;;0.98;0.88;;;21.90;99.90;;;;;;5012682;28;20194;-88
2023/04/24 14:24:25;;;;;;;3.17;1.88;;;21.90;99.90;;;;;;5013108;28;20277;-87
2023/04/24 14:26:52;;;;;;;5.35;3.95;;;22.00;99.90;;;;;;5012316;28;20617;-87
2023/04/24 14:29:20;;;;;;;3.28;0.95;;;22.20;99.90;;;;;;5017176;28;20267;-88
2023/04/24 14:31:47;;;;;;;2.72;1.67;;;22.20;99.90;;;;;;5025929;28;20252;-87
2023/04/24 14:34:16;;;;;;;4.32;1.55;;;22.10;99.90;;;;;;5030234;28;20210;-88
2023/04/24 14:36:43;;;;;;;1.77;1.10;;;22.00;99.90;;;;;;5028726;28;20280;-88
2023/04/24 14:39:10;;;;;;;1.17;1.00;;;21.80;99.90;;;;;;5015118;28;20194;-88
2023/04/24 14:41:39;;;;;;;1.08;0.80;;;21.70;99.90;;;;;;5025120;28;20460;-88
2023/04/24 14:44:06;;;;;;;2.63;1.20;;;21.60;99.90;;;;;;5024379;28;20206;-88
2023/04/24 14:46:34;;;;;;;1.65;0.88;;;21.60;99.90;;;;;;5016067;28;20198;-88
2023/04/24 14:49:01;;;;;;;2.20;1.00;;;21.70;99.90;;;;;;5028862;28;20193;-88
2023/04/24 14:51:28;;;;;;;3.15;1.02;;;21.70;99.90;;;;;;5013126;28;20656;-88
2023/04/24 14:53:57;;;;;;;1.02;0.82;;;21.70;99.90;;;;;;5015691;28;20215;-88
2023/04/24 14:56:24;;;;;;;1.55;1.25;;;21.80;99.90;;;;;;5020545;28;20190;-88
2023/04/24 14:58:51;;;;;;;2.17;1.50;;;21.80;99.90;;;;;;5030015;28;20203;-88
2023/04/24 15:01:18;;;;;;;5.05;1.50;;;21.70;99.90;;;;;;5013243;28;20268;-88
2023/04/24 15:03:47;;;;;;;5.03;3.28;;;21.50;99.90;;;;;;5028595;28;20248;-87
2023/04/24 15:06:14;;;;;;;4.82;3.40;;;21.20;99.90;;;;;;5017331;28;20194;-87
2023/04/24 15:08:41;;;;;;;9.43;5.75;;;20.90;99.90;;;;;;5020796;28;20194;-87
2023/04/24 15:11:08;;;;;;;11.68;6.30;;;20.70;99.90;;;;;;5023480;28;20201;-87
2023/04/24 15:13:35;;;;;;;16.73;8.52;;;20.40;99.90;;;;;;5027713;28;20213;-88
2023/04/24 15:16:02;;;;;;;17.02;7.85;;;20.10;99.90;;;;;;5024926;28;20226;-87
2023/04/24 15:18:29;;;;;;;11.75;5.85;;;19.80;99.90;;;;;;5029978;28;20230;-87
2023/04/24 15:20:57;;;;;;;13.05;6.60;;;19.60;99.90;;;;;;5024785;28;20276;-87
2023/04/24 15:23:24;;;;;;;9.25;5.93;;;19.50;99.90;;;;;;5028303;28;20190;-87
2023/04/24 15:25:51;;;;;;;14.38;7.03;;;19.40;99.90;;;;;;5019614;28;20194;-87
2023/04/24 15:28:18;;;;;;;17.13;7.60;;;19.30;99.90;;;;;;5029818;28;20201;-87
2023/04/24 15:30:46;;;;;;;11.82;4.75;;;19.20;99.90;;;;;;5031231;28;20198;-87
2023/04/24 15:33:12;;;;;;;8.60;5.22;;;19.20;99.90;;;;;;5028269;28;20586;-86
2023/04/24 15:35:40;;;;;;;9.73;4.65;;;19.20;99.90;;;;;;5025476;28;20675;-87
2023/04/24 15:38:08;;;;;;;7.82;5.30;;;19.10;99.90;;;;;;5032994;28;20209;-87
2023/04/24 15:40:35;;;;;;;11.32;6.40;;;19.00;99.90;;;;;;5029429;28;20194;-87
2023/04/24 15:43:02;;;;;;;5.63;3.35;;;19.00;99.90;;;;;;5023529;28;20186;-87
2023/04/24 15:45:30;;;;;;;15.30;6.50;;;19.00;99.90;;;;;;5020195;28;20248;-88
2023/04/24 15:47:57;;;;;;;6.78;4.15;;;19.00;99.90;;;;;;5023026;28;20653;-87
2023/04/24 15:50:24;;;;;;;6.45;4.75;;;18.90;99.90;;;;;;5031672;28;20201;-87
2023/04/24 15:52:51;;;;;;;6.15;3.67;;;18.80;99.90;;;;;;5028982;28;20194;-87
2023/04/24 15:55:19;;;;;;;5.25;2.83;;;18.70;99.90;;;;;;5031076;28;20206;-87
2023/04/24 15:57:46;;;;;;;9.13;4.90;;;18.50;99.90;;;;;;5030971;28;20200;-87
2023/04/24 16:00:14;;;;;;;9.25;4.82;;;18.40;99.90;;;;;;5021498;28;20193;-88
2023/04/24 16:02:41;;;;;;;5.22;3.00;;;18.20;99.90;;;;;;5020590;28;20229;-87
2023/04/24 16:05:10;;;;;;;11.75;6.07;;;18.20;99.90;;;;;;5022698;28;20197;-87
2023/04/24 16:07:38;;;;;;;2.75;2.30;;;18.20;99.90;;;;;;5030536;28;20193;-88
2023/04/24 16:10:06;;;;;;;3.33;2.38;;;18.10;99.90;;;;;;5016926;28;20199;-87
2023/04/24 16:12:34;;;;;;;4.63;2.78;;;18.10;99.90;;;;;;5029666;28;20198;-87
2023/04/24 16:15:02;;;;;;;6.07;3.88;;;17.90;99.90;;;;;;5027316;28;20711;-87
2023/04/24 16:17:28;;;;;;;20.70;14.10;;;17.90;99.90;;;;;;5021284;28;20204;-87
2023/04/24 16:19:55;;;;;;;11.25;8.38;;;17.80;99.90;;;;;;5018200;28;20233;-88
2023/04/24 16:22:22;;;;;;;6.38;3.00;;;17.70;1.00;;;;;;5014754;28;20202;-87
2023/04/24 16:24:49;;;;;;;16.60;10.20;;;17.60;1.00;;;;;;5025985;28;20189;-85
2023/04/24 16:27:16;;;;;;;28.40;15.63;;;17.50;1.00;;;;;;5018231;28;20195;-86
2023/04/24 16:29:45;;;;;;;19.73;14.13;;;17.40;1.00;;;;;;5027568;28;20197;-87
2023/04/24 16:32:12;;;;;;;23.65;13.13;;;17.30;1.00;;;;;;5030049;28;20197;-86
2023/04/24 16:34:39;;;;;;;9.65;6.57;;;17.20;1.00;;;;;;5026824;28;21119;-87
2023/04/24 16:37:06;;;;;;;6.93;4.40;;;17.10;1.00;;;;;;5017297;28;20198;-86
2023/04/24 16:39:33;;;;;;;9.20;6.30;;;17.10;18.00;;;;;;5015584;28;20263;-87
2023/04/24 16:42:00;;;;;;;8.23;6.10;;;17.10;99.90;;;;;;5019309;28;20205;-86
2023/04/24 16:44:28;;;;;;;6.63;4.10;;;17.10;99.90;;;;;;5016693;28;20229;-87
2023/04/24 16:46:56;;;;;;;6.47;4.60;;;17.10;99.90;;;;;;5027624;28;20193;-86
2023/04/24 16:49:23;;;;;;;7.38;4.85;;;17.00;99.90;;;;;;5021738;28;20277;-85
2023/04/24 16:51:50;;;;;;;8.73;7.30;;;17.00;99.90;;;;;;5030082;28;20189;-86
2023/04/24 16:54:17;;;;;;;5.43;4.38;;;16.90;99.90;;;;;;5013574;28;20218;-85
2023/04/24 16:56:44;;;;;;;3.80;3.15;;;16.90;99.90;;;;;;5013808;28;20240;-87
2023/04/24 16:59:11;;;;;;;3.25;2.67;;;16.80;96.90;;;;;;5013948;28;20537;-87
2023/04/24 17:01:38;;;;;;;4.80;3.83;;;16.70;95.70;;;;;;5013354;28;20194;-87
2023/04/24 17:04:07;;;;;;;5.15;4.55;;;16.60;99.90;;;;;;5013579;28;20272;-85
2023/04/24 17:06:34;;;;;;;4.93;2.88;;;16.50;99.90;;;;;;5013876;28;20253;-86
2023/04/24 17:09:01;;;;;;;10.63;5.93;;;16.50;99.90;;;;;;5022597;28;20630;-87
2023/04/24 17:11:28;;;;;;;5.57;2.40;;;16.40;99.90;;;;;;5027774;28;20245;-86
2023/04/24 17:13:55;;;;;;;4.70;2.88;;;16.30;99.90;;;;;;5029345;28;20213;-87
2023/04/24 17:16:22;;;;;;;4.45;3.25;;;16.30;99.90;;;;;;5029136;28;20245;-87
2023/04/24 17:18:49;;;;;;;8.63;3.65;;;16.20;99.90;;;;;;5030233;28;20205;-86
2023/04/24 17:21:18;;;;;;;5.50;3.25;;;16.10;99.90;;;;;;5025338;28;20606;-86
2023/04/24 17:23:45;;;;;;;10.52;5.00;;;16.00;99.90;;;;;;5028376;28;20271;-86
2023/04/24 17:26:11;;;;;;;6.38;4.43;;;15.90;99.90;;;;;;5032305;28;20336;-87
2023/04/24 17:28:38;;;;;;;5.95;3.38;;;15.90;1.00;;;;;;5012609;28;20202;-87
2023/04/24 17:31:05;;;;;;;7.45;4.85;;;15.80;1.00;;;;;;5012192;28;20213;-86
2023/04/24 17:33:32;;;;;;;8.43;4.32;;;15.70;1.00;;;;;;5011769;28;20237;-85
2023/04/24 17:36:01;;;;;;;6.22;4.47;;;15.60;1.00;;;;;;5015313;28;20268;-86
2023/04/24 17:38:29;;;;;;;4.65;3.60;;;15.50;1.00;;;;;;5013652;28;20194;-86
2023/04/24 17:40:57;;;;;;;5.00;3.42;;;15.40;1.00;;;;;;5018038;28;20201;-85
2023/04/24 17:43:24;;;;;;;4.45;4.05;;;15.30;1.00;;;;;;5015142;28;20238;-86
2023/04/24 17:45:54;;;;;;;6.78;4.95;;;15.20;45.00;;;;;;5016445;28;20187;-85
2023/04/24 17:48:21;;;;;;;12.50;6.00;;;15.20;99.90;;;;;;5017668;28;20198;-86
2023/04/24 17:50:49;;;;;;;11.07;6.30;;;15.10;99.90;;;;;;5018520;28;20223;-86
2023/04/24 17:53:17;;;;;;;10.40;5.10;;;15.10;99.90;;;;;;5018434;28;20596;-86
2023/04/24 17:55:46;;;;;;;17.30;11.30;;;15.00;99.90;;;;;;5015376;28;20224;-86
2023/04/24 17:58:13;;;;;;;15.85;10.07;;;14.90;1.00;;;;;;5030922;28;20278;-86
2023/04/24 18:00:41;;;;;;;13.40;11.45;;;14.90;1.00;;;;;;5029250;28;20187;-85
2023/04/24 18:03:09;;;;;;;22.58;18.67;;;14.80;1.00;;;;;;5017614;28;20196;-86